createdAt,value
2023-07-16T00:02:05.958Z,18.72
2023-07-16T00:04:33.526Z,18.68
2023-07-16T00:07:01.736Z,18.61
2023-07-16T00:09:29.538Z,18.56
2023-07-16T00:11:57.665Z,18.51
2023-07-16T00:14:24.660Z,18.45
2023-07-16T00:16:52.074Z,18.39
2023-07-16T00:19:19.622Z,18.34
2023-07-16T00:21:46.795Z,18.30
2023-07-16T00:24:13.822Z,18.26
2023-07-16T00:26:41.922Z,18.22
2023-07-16T00:29:09.777Z,18.19
2023-07-16T00:31:37.014Z,18.16
2023-07-16T00:34:04.264Z,18.13
2023-07-16T00:36:31.770Z,18.11
2023-07-16T00:38:58.768Z,18.08
2023-07-16T00:41:26.019Z,18.06
2023-07-16T00:43:54.928Z,18.04
2023-07-16T00:46:22.109Z,18.03
2023-07-16T00:48:49.515Z,18.00
2023-07-16T00:51:18.522Z,17.98
2023-07-16T00:53:45.569Z,17.97
2023-07-16T00:56:12.599Z,17.95
2023-07-16T00:58:39.684Z,17.93
2023-07-16T01:01:06.829Z,17.91
2023-07-16T01:03:34.769Z,17.89
2023-07-16T01:06:12.061Z,17.86
2023-07-16T01:08:42.599Z,17.84
2023-07-16T01:11:09.781Z,17.82
2023-07-16T01:13:36.908Z,17.80
2023-07-16T01:16:07.028Z,17.78
2023-07-16T01:18:34.052Z,17.76
2023-07-16T01:21:01.117Z,17.74
2023-07-16T01:23:31.117Z,17.72
2023-07-16T01:26:25.296Z,17.70
2023-07-16T01:29:10.165Z,17.67
2023-07-16T01:31:37.120Z,17.65
2023-07-16T01:34:04.317Z,17.62
2023-07-16T01:36:31.815Z,17.60
2023-07-16T01:38:58.778Z,17.59
2023-07-16T01:41:25.808Z,17.58
2023-07-16T01:43:52.781Z,17.56
2023-07-16T01:46:20.070Z,17.55
2023-07-16T01:48:47.864Z,17.53
2023-07-16T01:51:15.377Z,17.51
2023-07-16T01:53:42.335Z,17.50
2023-07-16T01:56:09.435Z,17.48
2023-07-16T01:58:37.794Z,17.47
2023-07-16T02:01:04.990Z,17.46
2023-07-16T02:03:33.227Z,17.45
2023-07-16T02:06:01.300Z,17.43
2023-07-16T02:08:28.544Z,17.42
2023-07-16T02:10:56.002Z,17.41
2023-07-16T02:13:23.769Z,17.39
2023-07-16T02:15:51.173Z,17.37
2023-07-16T02:18:18.902Z,17.36
2023-07-16T02:20:46.650Z,17.34
2023-07-16T02:23:13.840Z,17.33
2023-07-16T02:25:41.367Z,17.33
2023-07-16T02:28:08.752Z,17.32
2023-07-16T02:30:36.171Z,17.33
2023-07-16T02:33:03.281Z,17.33
2023-07-16T02:35:31.091Z,17.33
2023-07-16T02:37:57.920Z,17.34
2023-07-16T02:40:27.460Z,17.36
2023-07-16T02:42:54.584Z,17.38
2023-07-16T02:45:21.555Z,17.40
2023-07-16T02:47:48.793Z,17.43
2023-07-16T02:50:16.953Z,17.46
2023-07-16T02:52:44.204Z,17.49
2023-07-16T02:55:11.449Z,17.52
2023-07-16T02:57:38.721Z,17.56
2023-07-16T03:00:07.088Z,17.60
2023-07-16T03:02:34.459Z,17.64
2023-07-16T03:05:03.437Z,17.68
2023-07-16T03:07:30.921Z,17.73
2023-07-16T03:09:57.932Z,17.77
2023-07-16T03:12:25.098Z,17.81
2023-07-16T03:14:54.898Z,17.86
2023-07-16T03:17:24.829Z,17.91
2023-07-16T03:19:53.938Z,17.97
2023-07-16T03:22:23.655Z,18.02
2023-07-16T03:24:50.871Z,18.06
2023-07-16T03:27:19.081Z,18.10
2023-07-16T03:29:49.769Z,18.14
2023-07-16T03:32:18.075Z,18.17
2023-07-16T03:34:46.020Z,18.21
2023-07-16T03:37:15.260Z,18.26
2023-07-16T03:39:42.528Z,18.31
2023-07-16T03:42:10.134Z,18.36
2023-07-16T03:44:37.195Z,18.41
2023-07-16T03:47:04.704Z,18.48
2023-07-16T03:49:32.004Z,18.55
2023-07-16T03:51:58.927Z,18.61
2023-07-16T03:54:26.800Z,18.67
2023-07-16T03:56:53.947Z,18.72
2023-07-16T03:59:21.342Z,18.78
2023-07-16T04:01:48.528Z,18.84
2023-07-16T04:04:15.807Z,18.91
2023-07-16T04:06:43.798Z,18.98
2023-07-16T04:09:11.128Z,19.06
2023-07-16T04:11:38.402Z,19.14
2023-07-16T04:14:07.683Z,19.23
2023-07-16T04:16:35.405Z,19.32
2023-07-16T04:19:02.399Z,19.41
2023-07-16T04:21:29.433Z,19.49
2023-07-16T04:23:56.377Z,19.60
2023-07-16T04:26:23.527Z,19.71
2023-07-16T04:28:50.582Z,19.82
2023-07-16T04:31:17.844Z,19.94
2023-07-16T04:33:44.976Z,20.09
2023-07-16T04:36:11.918Z,20.23
2023-07-16T04:38:39.093Z,20.38
2023-07-16T04:41:06.321Z,20.54
2023-07-16T04:43:33.508Z,20.71
2023-07-16T04:46:00.559Z,20.91
2023-07-16T04:48:27.917Z,21.10
2023-07-16T04:50:55.020Z,21.33
2023-07-16T04:53:23.300Z,21.57
2023-07-16T04:55:50.664Z,21.81
2023-07-16T04:58:17.915Z,22.06
2023-07-16T05:00:44.974Z,22.32
2023-07-16T05:03:12.019Z,22.59
2023-07-16T05:05:40.990Z,22.90
2023-07-16T05:08:08.042Z,23.19
2023-07-16T05:10:35.600Z,23.50
2023-07-16T05:13:04.300Z,23.83
2023-07-16T05:15:32.969Z,24.17
2023-07-16T05:18:00.608Z,24.50
2023-07-16T05:20:27.876Z,24.84
2023-07-16T05:22:55.420Z,25.18
2023-07-16T05:25:22.497Z,25.55
2023-07-16T05:27:49.541Z,25.93
2023-07-16T05:30:17.011Z,26.30
2023-07-16T05:32:44.392Z,26.64
2023-07-16T05:35:11.915Z,26.97
2023-07-16T05:37:38.954Z,27.33
2023-07-16T05:40:09.502Z,27.64
2023-07-16T05:42:37.251Z,27.94
2023-07-16T05:45:04.801Z,28.28
2023-07-16T05:47:32.120Z,28.55
2023-07-16T05:49:59.206Z,28.74
2023-07-16T05:52:26.670Z,28.92
2023-07-16T05:54:53.815Z,29.23
2023-07-16T05:57:20.871Z,29.49
2023-07-16T05:59:47.800Z,29.79
2023-07-16T06:02:14.970Z,30.05
2023-07-16T06:04:42.001Z,30.23
2023-07-16T06:07:13.551Z,30.30
2023-07-16T06:09:42.035Z,30.59
2023-07-16T06:12:09.076Z,31.05
2023-07-16T06:14:36.136Z,31.58
2023-07-16T06:17:03.478Z,32.11
2023-07-16T06:19:30.548Z,32.54
2023-07-16T06:21:57.798Z,33.01
2023-07-16T06:24:25.282Z,33.47
2023-07-16T06:26:56.784Z,33.83
2023-07-16T06:29:23.836Z,34.15
2023-07-16T06:31:58.756Z,34.38
2023-07-16T06:34:26.028Z,34.73
2023-07-16T06:36:53.316Z,35.16
2023-07-16T06:39:21.138Z,35.64
2023-07-16T06:41:48.401Z,36.11
2023-07-16T06:44:15.852Z,36.40
2023-07-16T06:46:44.272Z,36.49
2023-07-16T06:49:11.402Z,36.59
2023-07-16T06:51:38.828Z,36.82
2023-07-16T06:54:06.111Z,37.10
2023-07-16T06:56:33.026Z,37.43
2023-07-16T06:58:59.966Z,37.73
2023-07-16T07:01:28.688Z,37.99
2023-07-16T07:03:55.965Z,38.11
2023-07-16T07:06:25.592Z,38.18
2023-07-16T07:08:53.090Z,38.38
2023-07-16T07:11:20.879Z,38.64
2023-07-16T07:13:51.060Z,38.88
2023-07-16T07:16:19.114Z,39.01
2023-07-16T07:18:46.284Z,39.12
2023-07-16T07:21:13.327Z,39.34
2023-07-16T07:23:41.414Z,39.52
2023-07-16T07:26:09.162Z,39.70
2023-07-16T07:28:37.377Z,39.86
2023-07-16T07:31:06.579Z,39.96
2023-07-16T07:33:33.784Z,40.03
2023-07-16T07:36:00.737Z,40.09
2023-07-16T07:38:31.419Z,40.22
2023-07-16T07:40:58.425Z,40.42
2023-07-16T07:43:25.680Z,40.61
2023-07-16T07:45:53.454Z,40.63
2023-07-16T07:48:22.010Z,40.69
2023-07-16T07:50:51.157Z,40.96
2023-07-16T07:53:20.000Z,41.18
2023-07-16T07:55:47.247Z,41.33
2023-07-16T07:58:14.327Z,41.44
2023-07-16T08:00:41.338Z,41.61
2023-07-16T08:03:08.681Z,41.84
2023-07-16T08:05:36.149Z,41.82
2023-07-16T08:08:03.448Z,41.39
2023-07-16T08:10:30.479Z,40.62
2023-07-16T08:12:58.217Z,39.62
2023-07-16T08:15:25.684Z,38.59
2023-07-16T08:17:55.492Z,37.57
2023-07-16T08:20:22.860Z,36.92
2023-07-16T08:22:50.689Z,36.85
2023-07-16T08:25:17.993Z,37.21
2023-07-16T08:27:45.009Z,37.86
2023-07-16T08:30:12.277Z,38.50
2023-07-16T08:32:39.600Z,38.77
2023-07-16T08:35:07.491Z,38.71
2023-07-16T08:37:34.538Z,38.43
2023-07-16T08:40:01.588Z,38.19
2023-07-16T08:42:28.532Z,38.14
2023-07-16T08:44:55.663Z,37.91
2023-07-16T08:47:23.088Z,38.01
2023-07-16T08:50:01.136Z,38.53
2023-07-16T08:52:28.883Z,39.09
2023-07-16T08:54:56.062Z,39.63
2023-07-16T08:57:23.604Z,40.14
2023-07-16T08:59:51.461Z,40.40
2023-07-16T09:02:19.230Z,40.55
2023-07-16T09:04:51.449Z,40.83
2023-07-16T09:07:19.793Z,41.20
2023-07-16T09:09:59.656Z,41.49
2023-07-16T09:12:27.073Z,41.47
2023-07-16T09:14:56.211Z,41.49
2023-07-16T09:17:27.384Z,41.59
2023-07-16T09:19:54.590Z,41.64
2023-07-16T09:22:21.975Z,41.51
2023-07-16T09:24:49.604Z,41.37
2023-07-16T09:27:16.656Z,41.38
2023-07-16T09:29:44.085Z,41.46
2023-07-16T09:32:11.229Z,41.60
2023-07-16T09:34:39.519Z,41.72
2023-07-16T09:37:07.195Z,41.51
2023-07-16T09:39:34.335Z,40.92
2023-07-16T09:42:02.082Z,40.36
2023-07-16T09:44:29.977Z,39.80
2023-07-16T09:46:57.144Z,39.12
2023-07-16T09:49:24.695Z,38.37
2023-07-16T09:51:52.021Z,37.99
2023-07-16T09:54:19.782Z,37.97
2023-07-16T09:56:50.313Z,37.96
2023-07-16T09:59:18.696Z,37.88
2023-07-16T10:01:45.916Z,37.74
2023-07-16T10:04:20.982Z,37.64
2023-07-16T10:07:22.328Z,37.42
2023-07-16T10:09:57.413Z,37.41
2023-07-16T10:12:25.887Z,37.65
2023-07-16T10:14:59.846Z,37.87
2023-07-16T10:17:27.330Z,38.25
2023-07-16T10:20:02.467Z,38.74
2023-07-16T10:22:39.771Z,39.10
2023-07-16T10:25:11.334Z,39.33
2023-07-16T10:27:39.797Z,39.30
2023-07-16T10:30:08.140Z,39.17
2023-07-16T10:32:35.666Z,39.18
2023-07-16T10:35:03.918Z,39.14
2023-07-16T10:37:30.936Z,39.17
2023-07-16T10:40:00.227Z,39.21
2023-07-16T10:42:28.088Z,39.17
2023-07-16T10:44:56.711Z,39.20
2023-07-16T10:47:25.166Z,39.19
2023-07-16T10:49:54.756Z,39.12
2023-07-16T10:52:22.636Z,38.98
2023-07-16T10:54:50.692Z,38.83
2023-07-16T10:57:17.680Z,38.64
2023-07-16T10:59:45.606Z,38.44
2023-07-16T11:02:14.740Z,38.22
2023-07-16T11:04:44.725Z,37.97
2023-07-16T11:07:12.710Z,37.89
2023-07-16T11:10:03.488Z,37.81
2023-07-16T11:12:30.845Z,37.33
2023-07-16T11:14:58.408Z,36.96
2023-07-16T11:17:27.531Z,36.70
2023-07-16T11:19:56.213Z,36.61
2023-07-16T11:22:29.971Z,36.59
2023-07-16T11:24:57.033Z,36.62
2023-07-16T11:27:26.865Z,36.64
2023-07-16T11:29:58.107Z,36.59
2023-07-16T11:32:35.803Z,36.48
2023-07-16T11:35:04.816Z,36.29
2023-07-16T11:37:33.262Z,36.11
2023-07-16T11:40:09.832Z,35.85
2023-07-16T11:42:40.676Z,35.47
2023-07-16T11:45:27.072Z,35.20
2023-07-16T11:47:54.787Z,35.12
2023-07-16T11:50:22.098Z,35.08
2023-07-16T11:52:54.211Z,34.99
2023-07-16T11:55:21.097Z,34.85
2023-07-16T11:57:48.571Z,34.69
2023-07-16T12:00:15.795Z,34.56
2023-07-16T12:02:43.293Z,34.53
2023-07-16T12:05:12.286Z,34.42
2023-07-16T12:07:40.986Z,34.31
2023-07-16T12:10:08.648Z,34.24
2023-07-16T12:12:39.107Z,34.24
2023-07-16T12:15:08.224Z,34.28
2023-07-16T12:17:36.425Z,34.26
2023-07-16T12:20:04.767Z,34.10
2023-07-16T12:22:32.842Z,33.83
2023-07-16T12:25:00.235Z,33.60
2023-07-16T12:27:27.294Z,33.42
2023-07-16T12:29:54.712Z,33.19
2023-07-16T12:32:22.096Z,32.96
2023-07-16T12:34:49.222Z,32.84
2023-07-16T12:37:17.690Z,32.77
2023-07-16T12:39:44.862Z,32.72
2023-07-16T12:42:12.001Z,32.74
2023-07-16T12:44:39.756Z,32.73
2023-07-16T12:47:09.137Z,32.72
2023-07-16T12:49:36.441Z,32.72
2023-07-16T12:52:04.196Z,32.69
2023-07-16T12:54:32.446Z,32.68
2023-07-16T12:56:59.414Z,32.66
2023-07-16T12:59:26.544Z,32.64
2023-07-16T13:01:53.620Z,32.60
2023-07-16T13:04:20.634Z,32.54
2023-07-16T13:06:49.112Z,32.50
2023-07-16T13:09:17.216Z,32.49
2023-07-16T13:11:44.347Z,32.48
2023-07-16T13:14:11.599Z,32.45
2023-07-16T13:16:39.287Z,32.41
2023-07-16T13:19:06.600Z,32.38
2023-07-16T13:21:34.677Z,32.28
2023-07-16T13:24:01.658Z,32.22
2023-07-16T13:26:29.534Z,32.17
2023-07-16T13:28:56.916Z,32.18
2023-07-16T13:31:24.029Z,32.12
2023-07-16T13:33:51.138Z,32.01
2023-07-16T13:36:18.909Z,31.90
2023-07-16T13:38:46.271Z,31.80
2023-07-16T13:41:13.065Z,31.70
2023-07-16T13:43:40.164Z,31.55
2023-07-16T13:46:09.541Z,31.43
2023-07-16T13:48:47.868Z,31.35
2023-07-16T13:51:24.236Z,31.23
2023-07-16T13:53:51.282Z,31.18
2023-07-16T13:56:18.503Z,31.21
2023-07-16T13:58:45.882Z,31.23
2023-07-16T14:01:13.155Z,31.19
2023-07-16T14:03:40.410Z,31.13
2023-07-16T14:06:07.783Z,31.10
2023-07-16T14:08:36.634Z,31.10
2023-07-16T14:11:03.987Z,31.05
2023-07-16T14:13:31.357Z,30.96
2023-07-16T14:15:58.298Z,30.86
2023-07-16T14:18:25.773Z,30.76
2023-07-16T14:20:52.804Z,30.70
2023-07-16T14:23:20.169Z,30.68
2023-07-16T14:25:47.404Z,30.68
2023-07-16T14:28:14.540Z,30.69
2023-07-16T14:30:42.635Z,30.66
2023-07-16T14:33:11.811Z,30.60
2023-07-16T14:35:40.005Z,30.57
2023-07-16T14:38:07.237Z,30.53
2023-07-16T14:40:35.451Z,30.49
2023-07-16T14:43:04.914Z,30.46
2023-07-16T14:45:34.691Z,30.39
2023-07-16T14:48:02.075Z,30.28
2023-07-16T14:50:29.642Z,30.19
2023-07-16T14:52:56.812Z,30.13
2023-07-16T14:55:23.954Z,30.10
2023-07-16T14:57:51.431Z,30.09
2023-07-16T15:00:19.260Z,30.08
2023-07-16T15:02:46.681Z,30.02
2023-07-16T15:05:13.698Z,29.97
2023-07-16T15:07:42.246Z,29.91
2023-07-16T15:10:10.454Z,29.82
2023-07-16T15:12:37.997Z,29.77
2023-07-16T15:15:11.729Z,29.71
2023-07-16T15:17:39.014Z,29.62
2023-07-16T15:20:07.480Z,29.55
2023-07-16T15:22:35.125Z,29.47
2023-07-16T15:25:03.452Z,29.37
2023-07-16T15:27:31.965Z,29.25
2023-07-16T15:29:59.594Z,29.12
2023-07-16T15:32:27.076Z,29.00
2023-07-16T15:34:54.416Z,28.92
2023-07-16T15:37:22.068Z,28.83
2023-07-16T15:39:49.844Z,28.77
2023-07-16T15:42:16.877Z,28.74
2023-07-16T15:44:43.946Z,28.71
2023-07-16T15:47:11.178Z,28.71
2023-07-16T15:49:38.462Z,28.68
2023-07-16T15:52:05.685Z,28.62
2023-07-16T15:54:32.772Z,28.55
2023-07-16T15:57:00.502Z,28.47
2023-07-16T15:59:27.545Z,28.39
2023-07-16T16:01:55.436Z,28.32
2023-07-16T16:04:22.862Z,28.25
2023-07-16T16:06:50.028Z,28.17
2023-07-16T16:09:17.690Z,28.09
2023-07-16T16:11:44.852Z,27.99
2023-07-16T16:14:12.710Z,27.93
2023-07-16T16:16:50.266Z,27.88
2023-07-16T16:19:25.115Z,27.82
2023-07-16T16:21:52.471Z,27.77
2023-07-16T16:24:19.520Z,27.70
2023-07-16T16:26:46.786Z,27.65
2023-07-16T16:29:13.812Z,27.61
2023-07-16T16:31:42.206Z,27.56
2023-07-16T16:34:09.444Z,27.50
2023-07-16T16:36:36.496Z,27.41
2023-07-16T16:39:03.638Z,27.33
2023-07-16T16:41:30.788Z,27.25
2023-07-16T16:43:57.834Z,27.18
2023-07-16T16:46:25.305Z,27.10
2023-07-16T16:48:52.362Z,27.03
2023-07-16T16:51:20.457Z,26.97
2023-07-16T16:53:48.098Z,26.89
2023-07-16T16:56:15.119Z,26.82
2023-07-16T16:58:42.199Z,26.75
2023-07-16T17:01:09.233Z,26.66
2023-07-16T17:03:36.363Z,26.59
2023-07-16T17:06:03.421Z,26.52
2023-07-16T17:08:30.564Z,26.45
2023-07-16T17:10:58.187Z,26.36
2023-07-16T17:13:25.270Z,26.28
2023-07-16T17:15:52.224Z,26.19
2023-07-16T17:18:19.607Z,26.08
2023-07-16T17:20:47.972Z,26.00
2023-07-16T17:23:15.029Z,25.90
2023-07-16T17:25:42.586Z,25.80
2023-07-16T17:28:09.708Z,25.72
2023-07-16T17:30:38.316Z,25.63
2023-07-16T17:33:05.413Z,25.56
2023-07-16T17:35:33.092Z,25.47
2023-07-16T17:38:00.376Z,25.41
2023-07-16T17:40:27.432Z,25.37
2023-07-16T17:42:55.287Z,25.34
2023-07-16T17:45:24.048Z,25.29
2023-07-16T17:47:51.118Z,25.25
2023-07-16T17:50:18.345Z,25.23
2023-07-16T17:52:47.442Z,25.18
2023-07-16T17:55:14.565Z,25.14
2023-07-16T17:57:44.839Z,25.10
2023-07-16T18:00:23.901Z,25.05
2023-07-16T18:02:52.166Z,24.98
2023-07-16T18:05:19.834Z,24.92
2023-07-16T18:07:51.334Z,24.86
2023-07-16T18:10:21.569Z,24.79
2023-07-16T18:12:48.711Z,24.73
2023-07-16T18:15:15.985Z,24.68
2023-07-16T18:17:47.317Z,24.64
2023-07-16T18:20:15.279Z,24.62
2023-07-16T18:22:42.885Z,24.59
2023-07-16T18:25:12.705Z,24.55
2023-07-16T18:27:39.709Z,24.50
2023-07-16T18:30:08.366Z,24.45
2023-07-16T18:32:39.425Z,24.40
2023-07-16T18:35:07.184Z,24.35
2023-07-16T18:37:36.074Z,24.31
2023-07-16T18:40:04.408Z,24.26
2023-07-16T18:42:32.214Z,24.21
2023-07-16T18:45:05.249Z,24.16
2023-07-16T18:47:32.495Z,24.11
2023-07-16T18:49:59.709Z,24.07
2023-07-16T18:52:26.871Z,24.03
2023-07-16T18:54:55.650Z,23.98
2023-07-16T18:57:24.580Z,23.94
2023-07-16T18:59:52.705Z,23.90
2023-07-16T19:02:20.164Z,23.85
2023-07-16T19:04:47.144Z,23.81
2023-07-16T19:07:14.358Z,23.79
2023-07-16T19:09:41.514Z,23.78
2023-07-16T19:12:09.066Z,23.79
2023-07-16T19:14:38.086Z,23.78
2023-07-16T19:17:05.728Z,23.75
2023-07-16T19:19:32.970Z,23.72
2023-07-16T19:22:00.027Z,23.69
2023-07-16T19:24:26.974Z,23.65
2023-07-16T19:26:54.127Z,23.59
2023-07-16T19:29:20.958Z,23.56
2023-07-16T19:31:48.063Z,23.52
2023-07-16T19:34:15.155Z,23.49
2023-07-16T19:36:42.830Z,23.46
2023-07-16T19:39:09.968Z,23.43
2023-07-16T19:41:37.143Z,23.39
2023-07-16T19:44:04.371Z,23.35
2023-07-16T19:46:32.312Z,23.30
2023-07-16T19:48:59.688Z,23.24
2023-07-16T19:51:26.835Z,23.18
2023-07-16T19:53:53.905Z,23.12
2023-07-16T19:56:22.279Z,23.06
2023-07-16T19:58:49.541Z,23.00
2023-07-16T20:01:16.822Z,22.93
2023-07-16T20:03:43.940Z,22.87
2023-07-16T20:06:11.150Z,22.79
2023-07-16T20:08:38.866Z,22.71
2023-07-16T20:11:05.880Z,22.63
2023-07-16T20:13:35.229Z,22.57
2023-07-16T20:16:07.066Z,22.48
2023-07-16T20:18:36.671Z,22.42
2023-07-16T20:21:05.474Z,22.37
2023-07-16T20:23:34.732Z,22.31
2023-07-16T20:26:01.782Z,22.26
2023-07-16T20:28:29.028Z,22.23
2023-07-16T20:30:56.173Z,22.18
2023-07-16T20:33:23.555Z,22.15
2023-07-16T20:35:51.203Z,22.10
2023-07-16T20:38:18.372Z,22.06
2023-07-16T20:40:47.438Z,22.02
2023-07-16T20:43:16.224Z,21.97
2023-07-16T20:45:46.094Z,21.91
2023-07-16T20:48:17.081Z,21.86
2023-07-16T20:50:44.063Z,21.83
2023-07-16T20:53:11.492Z,21.80
2023-07-16T20:55:38.537Z,21.76
2023-07-16T20:58:06.198Z,21.72
2023-07-16T21:00:33.260Z,21.69
2023-07-16T21:03:05.527Z,21.66
2023-07-16T21:05:33.376Z,21.62
2023-07-16T21:08:01.660Z,21.58
2023-07-16T21:10:28.929Z,21.54
2023-07-16T21:12:57.757Z,21.50
2023-07-16T21:15:27.007Z,21.48
2023-07-16T21:17:54.067Z,21.47
2023-07-16T21:20:21.108Z,21.45
2023-07-16T21:22:48.471Z,21.43
2023-07-16T21:25:15.829Z,21.42
2023-07-16T21:27:47.560Z,21.42
2023-07-16T21:30:15.218Z,21.40
2023-07-16T21:32:44.984Z,21.38
2023-07-16T21:35:12.947Z,21.37
2023-07-16T21:37:40.899Z,21.35
2023-07-16T21:40:08.520Z,21.34
2023-07-16T21:42:36.281Z,21.32
2023-07-16T21:45:04.074Z,21.30
2023-07-16T21:47:31.120Z,21.28
2023-07-16T21:49:58.775Z,21.27
2023-07-16T21:52:25.907Z,21.22
2023-07-16T21:54:53.195Z,21.20
2023-07-16T21:57:20.207Z,21.19
2023-07-16T21:59:47.878Z,21.18
2023-07-16T22:02:15.019Z,21.17
2023-07-16T22:04:42.088Z,21.12
2023-07-16T22:07:09.618Z,21.11
2023-07-16T22:09:36.670Z,21.10
2023-07-16T22:12:04.137Z,21.08
2023-07-16T22:14:31.281Z,21.06
2023-07-16T22:16:58.248Z,21.06
2023-07-16T22:19:32.572Z,21.08
2023-07-16T22:22:01.298Z,21.11
2023-07-16T22:24:28.697Z,21.13
2023-07-16T22:26:56.147Z,21.17
2023-07-16T22:29:24.034Z,21.22
2023-07-16T22:31:51.003Z,21.28
2023-07-16T22:34:18.346Z,21.33
2023-07-16T22:36:46.013Z,21.38
2023-07-16T22:39:13.724Z,21.40
2023-07-16T22:41:43.143Z,21.40
2023-07-16T22:44:10.077Z,21.38
2023-07-16T22:46:37.095Z,21.33
2023-07-16T22:49:07.135Z,21.29
2023-07-16T22:51:34.730Z,21.24
2023-07-16T22:54:03.586Z,21.18
2023-07-16T22:56:30.947Z,21.11
2023-07-16T22:58:57.886Z,21.03
2023-07-16T23:01:25.238Z,20.95
2023-07-16T23:03:52.230Z,20.88
2023-07-16T23:06:19.643Z,20.84
2023-07-16T23:08:46.710Z,20.80
2023-07-16T23:11:14.186Z,20.78
2023-07-16T23:13:44.414Z,20.76
2023-07-16T23:16:11.981Z,20.75
2023-07-16T23:18:38.970Z,20.74
2023-07-16T23:21:07.877Z,20.76
2023-07-16T23:23:36.754Z,20.77
2023-07-16T23:26:07.124Z,20.74
2023-07-16T23:28:34.844Z,20.71
2023-07-16T23:31:02.050Z,20.70
2023-07-16T23:33:29.384Z,20.70
2023-07-16T23:35:57.130Z,20.70
2023-07-16T23:38:24.684Z,20.70
2023-07-16T23:40:52.225Z,20.70
2023-07-16T23:43:19.296Z,20.66
2023-07-16T23:45:46.318Z,20.62
2023-07-16T23:48:14.424Z,20.58
2023-07-16T23:50:44.511Z,20.55
2023-07-16T23:53:11.461Z,20.56
2023-07-16T23:55:39.552Z,20.56
2023-07-16T23:58:06.787Z,20.57
